Airfield :
LOGIN :

Register | Disclaimer

   EN    FR    IT 

 










Legend :    VFR   Marginal VFR   IFR   Intensive IFR   Very Intensive IFR
Visi :
Ceiling :
>= 8 km
>= 3000ft
5 to 8 km
1000 to 3000 ft
1500m to 5 km
500 to 1000 ft
800 to 1500m
200 to 500 ft
< 800m
< 200 ft
Symbols :   Thunderstorms  Fog  Heavy snow  Heavy precipitations  Wind > 20 kt
SIGMETs :     Misc.  Thunderstorms  Icing  Turbulence  Mountain Waves  Volcanic Ashes






- Airport Elevation : 314 ft
- IATA code : OTP


LROP - Bucarest - Henri Coanda

CURRENT METAR :
  • 200400Z 08005KT CAVOK 10/08 Q1013 NOSIG

EXPIRED METARs :
  • 200330Z 06007KT CAVOK 10/08 Q1012 NOSIG
  • 200300Z 06007KT CAVOK 11/09 Q1012 NOSIG
  • 200230Z 06006KT CAVOK 11/09 Q1012 NOSIG
  • 200200Z 07006KT CAVOK 11/09 Q1012 NOSIG
  • 200130Z 07009KT CAVOK 11/09 Q1012 NOSIG

TAF TAF LROP
Valid from the 20 at 00:00 until the 21 at 00:00 UTC


192300Z 2000/2100 VRB04KT CAVOK
TEMPO 2017/2023 5000 -SHRA BKN015 SCT035CB



MET'MAP, your aeronautical weather chart ! - Copyright ORBIFLY December 2007 - Disclaimer

ORBIFLY MET'MAP TEAM :

Programming & Development : Alexandra Zaïnal
Concept & original design : Baudouin d'Aumeries
Assistance for programming : Marc-Olivier Méhu
Technical & hardware support : Manuel Goepfert

Contact : metmap@orbifly.com




SOURCES & CREDITS :

   NOAA